sensor_id;sensor_type;location;lat;lon;timestamp;temperature;humidity
29571;DHT22;16814;52.118;11.436;2022-11-04T00:02:09;8.80;99.90
29571;DHT22;16814;52.118;11.436;2022-11-04T00:04:37;8.70;99.90
29571;DHT22;16814;52.118;11.436;2022-11-04T00:07:03;8.70;99.90
29571;DHT22;16814;52.118;11.436;2022-11-04T00:09:51;8.70;99.90
29571;DHT22;16814;52.118;11.436;2022-11-04T00:12:19;8.80;99.90
29571;DHT22;16814;52.118;11.436;2022-11-04T00:14:52;8.80;99.90
29571;DHT22;16814;52.118;11.436;2022-11-04T00:17:19;8.90;99.90
29571;DHT22;16814;52.118;11.436;2022-11-04T00:19:48;8.70;99.90
29571;DHT22;16814;52.118;11.436;2022-11-04T00:22:34;8.70;99.90
29571;DHT22;16814;52.118;11.436;2022-11-04T00:25:23;8.60;99.90
29571;DHT22;16814;52.118;11.436;2022-11-04T00:28:20;8.50;99.90
29571;DHT22;16814;52.118;11.436;2022-11-04T00:31:08;8.40;99.90
29571;DHT22;16814;52.118;11.436;2022-11-04T00:33:55;8.40;99.90
29571;DHT22;16814;52.118;11.436;2022-11-04T00:36:23;8.40;99.90
29571;DHT22;16814;52.118;11.436;2022-11-04T00:38:50;8.40;99.90
29571;DHT22;16814;52.118;11.436;2022-11-04T00:41:17;8.60;99.90
29571;DHT22;16814;52.118;11.436;2022-11-04T00:44:00;8.60;99.90
29571;DHT22;16814;52.118;11.436;2022-11-04T00:46:27;8.50;99.90
29571;DHT22;16814;52.118;11.436;2022-11-04T00:48:54;8.60;99.90
29571;DHT22;16814;52.118;11.436;2022-11-04T00:51:19;8.60;99.90
29571;DHT22;16814;52.118;11.436;2022-11-04T00:53:47;8.60;99.90
29571;DHT22;16814;52.118;11.436;2022-11-04T00:56:14;8.80;99.90
29571;DHT22;16814;52.118;11.436;2022-11-04T00:58:42;8.80;99.90
29571;DHT22;16814;52.118;11.436;2022-11-04T01:01:10;8.90;99.90
29571;DHT22;16814;52.118;11.436;2022-11-04T01:03:36;8.90;99.90
29571;DHT22;16814;52.118;11.436;2022-11-04T01:06:03;8.70;99.90
29571;DHT22;16814;52.118;11.436;2022-11-04T01:08:29;8.70;99.90
29571;DHT22;16814;52.118;11.436;2022-11-04T01:10:54;8.70;99.90
29571;DHT22;16814;52.118;11.436;2022-11-04T01:13:21;8.70;99.90
29571;DHT22;16814;52.118;11.436;2022-11-04T01:15:48;8.70;99.90
29571;DHT22;16814;52.118;11.436;2022-11-04T01:18:15;8.60;99.90
29571;DHT22;16814;52.118;11.436;2022-11-04T01:20:42;8.60;99.90
29571;DHT22;16814;52.118;11.436;2022-11-04T01:23:10;8.60;99.90
29571;DHT22;16814;52.118;11.436;2022-11-04T01:25:40;8.50;99.90
29571;DHT22;16814;52.118;11.436;2022-11-04T01:28:06;8.40;99.90
29571;DHT22;16814;52.118;11.436;2022-11-04T01:30:33;8.60;99.90
29571;DHT22;16814;52.118;11.436;2022-11-04T01:33:00;8.50;99.90
29571;DHT22;16814;52.118;11.436;2022-11-04T01:35:25;8.50;99.90
29571;DHT22;16814;52.118;11.436;2022-11-04T01:37:53;8.50;99.90
29571;DHT22;16814;52.118;11.436;2022-11-04T01:40:21;8.60;99.90
29571;DHT22;16814;52.118;11.436;2022-11-04T01:42:47;8.60;99.90
29571;DHT22;16814;52.118;11.436;2022-11-04T01:45:16;8.60;99.90
29571;DHT22;16814;52.118;11.436;2022-11-04T01:47:53;8.60;99.90
29571;DHT22;16814;52.118;11.436;2022-11-04T01:50:31;8.70;99.90
29571;DHT22;16814;52.118;11.436;2022-11-04T01:53:15;8.60;99.90
29571;DHT22;16814;52.118;11.436;2022-11-04T01:55:50;8.70;99.90
29571;DHT22;16814;52.118;11.436;2022-11-04T01:58:22;8.60;99.90
29571;DHT22;16814;52.118;11.436;2022-11-04T02:00:52;8.70;99.90
29571;DHT22;16814;52.118;11.436;2022-11-04T02:03:44;8.80;99.90
29571;DHT22;16814;52.118;11.436;2022-11-04T02:06:14;8.80;99.90
29571;DHT22;16814;52.118;11.436;2022-11-04T02:08:41;8.80;99.90
29571;DHT22;16814;52.118;11.436;2022-11-04T02:11:08;8.80;99.90
29571;DHT22;16814;52.118;11.436;2022-11-04T02:13:35;8.90;99.90
29571;DHT22;16814;52.118;11.436;2022-11-04T02:16:42;9.00;99.90
29571;DHT22;16814;52.118;11.436;2022-11-04T02:19:35;9.00;99.90
29571;DHT22;16814;52.118;11.436;2022-11-04T02:25:20;8.90;99.90
29571;DHT22;16814;52.118;11.436;2022-11-04T02:42:35;8.90;99.90
29571;DHT22;16814;52.118;11.436;2022-11-04T02:45:22;8.80;99.90
29571;DHT22;16814;52.118;11.436;2022-11-04T02:53:38;9.00;99.90
29571;DHT22;16814;52.118;11.436;2022-11-04T02:56:08;9.00;99.90
29571;DHT22;16814;52.118;11.436;2022-11-04T02:58:53;9.00;99.90
29571;DHT22;16814;52.118;11.436;2022-11-04T03:01:27;8.90;99.90
29571;DHT22;16814;52.118;11.436;2022-11-04T03:04:07;8.90;99.90
29571;DHT22;16814;52.118;11.436;2022-11-04T03:06:37;8.90;99.90
29571;DHT22;16814;52.118;11.436;2022-11-04T03:09:03;8.90;99.90
29571;DHT22;16814;52.118;11.436;2022-11-04T03:11:31;9.00;99.90
29571;DHT22;16814;52.118;11.436;2022-11-04T03:14:39;9.00;99.90
29571;DHT22;16814;52.118;11.436;2022-11-04T03:17:29;9.00;99.90
29571;DHT22;16814;52.118;11.436;2022-11-04T03:19:59;9.00;99.90
29571;DHT22;16814;52.118;11.436;2022-11-04T03:22:29;9.00;99.90
29571;DHT22;16814;52.118;11.436;2022-11-04T03:24:58;9.00;99.90
29571;DHT22;16814;52.118;11.436;2022-11-04T03:30:19;9.10;99.90
29571;DHT22;16814;52.118;11.436;2022-11-04T03:33:24;9.10;99.90
29571;DHT22;16814;52.118;11.436;2022-11-04T03:35:54;9.10;99.90
29571;DHT22;16814;52.118;11.436;2022-11-04T03:38:21;9.10;99.90
29571;DHT22;16814;52.118;11.436;2022-11-04T03:40:52;9.10;99.90
29571;DHT22;16814;52.118;11.436;2022-11-04T03:43:25;9.20;99.90
29571;DHT22;16814;52.118;11.436;2022-11-04T03:45:54;9.10;99.90
29571;DHT22;16814;52.118;11.436;2022-11-04T03:48:20;9.20;99.90
29571;DHT22;16814;52.118;11.436;2022-11-04T03:50:49;9.20;99.90
29571;DHT22;16814;52.118;11.436;2022-11-04T03:53:24;9.20;99.90
29571;DHT22;16814;52.118;11.436;2022-11-04T04:01:48;9.20;99.90
29571;DHT22;16814;52.118;11.436;2022-11-04T04:04:36;9.20;99.90
29571;DHT22;16814;52.118;11.436;2022-11-04T04:07:33;9.20;99.90
29571;DHT22;16814;52.118;11.436;2022-11-04T04:10:14;9.20;99.90
29571;DHT22;16814;52.118;11.436;2022-11-04T04:13:15;9.20;99.90
29571;DHT22;16814;52.118;11.436;2022-11-04T04:15:59;9.20;99.90
29571;DHT22;16814;52.118;11.436;2022-11-04T04:19:11;9.20;99.90
29571;DHT22;16814;52.118;11.436;2022-11-04T04:21:34;9.30;99.90
29571;DHT22;16814;52.118;11.436;2022-11-04T04:24:06;9.30;99.90
29571;DHT22;16814;52.118;11.436;2022-11-04T04:27:01;9.30;99.90
29571;DHT22;16814;52.118;11.436;2022-11-04T04:29:54;9.30;99.90
29571;DHT22;16814;52.118;11.436;2022-11-04T04:32:23;9.20;99.90
29571;DHT22;16814;52.118;11.436;2022-11-04T04:34:51;9.30;99.90
29571;DHT22;16814;52.118;11.436;2022-11-04T04:37:39;9.30;99.90
29571;DHT22;16814;52.118;11.436;2022-11-04T04:40:08;9.30;99.90
29571;DHT22;16814;52.118;11.436;2022-11-04T04:42:59;9.30;99.90
29571;DHT22;16814;52.118;11.436;2022-11-04T04:45:54;9.40;99.90
29571;DHT22;16814;52.118;11.436;2022-11-04T04:48:19;9.40;99.90
29571;DHT22;16814;52.118;11.436;2022-11-04T04:50:50;9.40;99.90
29571;DHT22;16814;52.118;11.436;2022-11-04T04:53:18;9.40;99.90
29571;DHT22;16814;52.118;11.436;2022-11-04T04:55:44;9.40;99.90
29571;DHT22;16814;52.118;11.436;2022-11-04T04:58:10;9.50;99.90
29571;DHT22;16814;52.118;11.436;2022-11-04T05:00:35;9.50;99.90
29571;DHT22;16814;52.118;11.436;2022-11-04T05:03:02;9.50;99.90
29571;DHT22;16814;52.118;11.436;2022-11-04T05:05:27;9.50;99.90
29571;DHT22;16814;52.118;11.436;2022-11-04T05:07:54;9.50;99.90
29571;DHT22;16814;52.118;11.436;2022-11-04T05:10:20;9.40;99.90
29571;DHT22;16814;52.118;11.436;2022-11-04T05:12:47;9.40;99.90
29571;DHT22;16814;52.118;11.436;2022-11-04T05:15:31;9.40;99.90
29571;DHT22;16814;52.118;11.436;2022-11-04T05:17:59;9.40;99.90
29571;DHT22;16814;52.118;11.436;2022-11-04T05:20:25;9.60;99.90
29571;DHT22;16814;52.118;11.436;2022-11-04T05:22:55;9.60;99.90
29571;DHT22;16814;52.118;11.436;2022-11-04T05:25:23;9.70;99.90
29571;DHT22;16814;52.118;11.436;2022-11-04T05:27:48;9.70;99.90
29571;DHT22;16814;52.118;11.436;2022-11-04T05:30:14;9.80;99.90
29571;DHT22;16814;52.118;11.436;2022-11-04T05:32:42;9.70;99.90
29571;DHT22;16814;52.118;11.436;2022-11-04T05:35:08;9.80;99.90
29571;DHT22;16814;52.118;11.436;2022-11-04T05:37:35;9.80;99.90
29571;DHT22;16814;52.118;11.436;2022-11-04T05:40:05;9.90;99.90
29571;DHT22;16814;52.118;11.436;2022-11-04T05:42:32;10.00;99.90
29571;DHT22;16814;52.118;11.436;2022-11-04T05:44:59;10.00;99.90
29571;DHT22;16814;52.118;11.436;2022-11-04T05:47:26;10.00;99.90
29571;DHT22;16814;52.118;11.436;2022-11-04T05:49:53;10.00;99.90
29571;DHT22;16814;52.118;11.436;2022-11-04T05:52:18;10.00;99.90
29571;DHT22;16814;52.118;11.436;2022-11-04T05:54:45;10.00;99.90
29571;DHT22;16814;52.118;11.436;2022-11-04T05:57:13;10.00;99.90
29571;DHT22;16814;52.118;11.436;2022-11-04T05:59:39;10.00;99.90
29571;DHT22;16814;52.118;11.436;2022-11-04T06:02:05;10.00;99.90
29571;DHT22;16814;52.118;11.436;2022-11-04T06:04:34;10.00;99.90
29571;DHT22;16814;52.118;11.436;2022-11-04T06:07:04;10.00;99.90
29571;DHT22;16814;52.118;11.436;2022-11-04T06:09:30;9.90;99.90
29571;DHT22;16814;52.118;11.436;2022-11-04T06:12:15;9.90;99.90
29571;DHT22;16814;52.118;11.436;2022-11-04T06:14:43;10.00;99.90
29571;DHT22;16814;52.118;11.436;2022-11-04T06:17:19;10.00;99.90
29571;DHT22;16814;52.118;11.436;2022-11-04T06:19:45;10.10;99.90
29571;DHT22;16814;52.118;11.436;2022-11-04T06:22:13;10.10;99.90
29571;DHT22;16814;52.118;11.436;2022-11-04T06:24:42;10.10;99.90
29571;DHT22;16814;52.118;11.436;2022-11-04T06:27:09;10.00;99.90
29571;DHT22;16814;52.118;11.436;2022-11-04T06:29:37;10.00;99.90
29571;DHT22;16814;52.118;11.436;2022-11-04T06:32:12;10.00;99.90
29571;DHT22;16814;52.118;11.436;2022-11-04T06:34:38;10.00;99.90
29571;DHT22;16814;52.118;11.436;2022-11-04T06:37:04;10.00;99.90
29571;DHT22;16814;52.118;11.436;2022-11-04T06:39:30;10.00;99.90
29571;DHT22;16814;52.118;11.436;2022-11-04T06:41:57;10.00;99.90
29571;DHT22;16814;52.118;11.436;2022-11-04T06:44:25;10.00;99.90
29571;DHT22;16814;52.118;11.436;2022-11-04T06:46:51;10.00;99.90
29571;DHT22;16814;52.118;11.436;2022-11-04T06:49:20;9.90;99.90
29571;DHT22;16814;52.118;11.436;2022-11-04T06:51:50;10.20;99.90
29571;DHT22;16814;52.118;11.436;2022-11-04T06:54:20;9.90;99.90
29571;DHT22;16814;52.118;11.436;2022-11-04T06:56:47;9.90;99.90
29571;DHT22;16814;52.118;11.436;2022-11-04T06:59:19;9.90;99.90
29571;DHT22;16814;52.118;11.436;2022-11-04T07:01:46;9.90;99.90
29571;DHT22;16814;52.118;11.436;2022-11-04T07:04:13;9.90;99.90
29571;DHT22;16814;52.118;11.436;2022-11-04T07:06:42;9.90;99.90
29571;DHT22;16814;52.118;11.436;2022-11-04T07:09:11;9.90;99.90
29571;DHT22;16814;52.118;11.436;2022-11-04T07:11:37;9.90;99.90
29571;DHT22;16814;52.118;11.436;2022-11-04T07:14:09;9.90;99.90
29571;DHT22;16814;52.118;11.436;2022-11-04T07:16:36;9.90;99.90
29571;DHT22;16814;52.118;11.436;2022-11-04T07:19:05;9.90;99.90
29571;DHT22;16814;52.118;11.436;2022-11-04T07:21:30;9.90;99.90
29571;DHT22;16814;52.118;11.436;2022-11-04T07:23:59;9.90;99.90
29571;DHT22;16814;52.118;11.436;2022-11-04T07:26:24;9.90;99.90
29571;DHT22;16814;52.118;11.436;2022-11-04T07:28:52;9.90;99.90
29571;DHT22;16814;52.118;11.436;2022-11-04T07:31:19;10.00;99.90
29571;DHT22;16814;52.118;11.436;2022-11-04T07:33:48;10.00;99.90
29571;DHT22;16814;52.118;11.436;2022-11-04T07:36:18;10.10;99.90
29571;DHT22;16814;52.118;11.436;2022-11-04T07:38:45;10.10;99.90
29571;DHT22;16814;52.118;11.436;2022-11-04T07:41:13;10.10;99.90
29571;DHT22;16814;52.118;11.436;2022-11-04T07:43:40;10.10;99.90
29571;DHT22;16814;52.118;11.436;2022-11-04T07:46:11;10.10;99.90
29571;DHT22;16814;52.118;11.436;2022-11-04T07:48:37;10.20;99.90
29571;DHT22;16814;52.118;11.436;2022-11-04T07:51:06;10.20;99.90
29571;DHT22;16814;52.118;11.436;2022-11-04T07:53:34;10.20;99.90
29571;DHT22;16814;52.118;11.436;2022-11-04T07:56:11;10.20;99.90
29571;DHT22;16814;52.118;11.436;2022-11-04T07:58:39;10.20;99.90
29571;DHT22;16814;52.118;11.436;2022-11-04T08:01:07;10.30;99.90
29571;DHT22;16814;52.118;11.436;2022-11-04T08:03:34;10.30;99.90
29571;DHT22;16814;52.118;11.436;2022-11-04T08:06:07;10.30;99.90
29571;DHT22;16814;52.118;11.436;2022-11-04T08:08:33;10.30;99.90
29571;DHT22;16814;52.118;11.436;2022-11-04T08:11:08;10.30;99.90
29571;DHT22;16814;52.118;11.436;2022-11-04T08:13:37;10.30;99.90
29571;DHT22;16814;52.118;11.436;2022-11-04T08:16:14;10.30;99.90
29571;DHT22;16814;52.118;11.436;2022-11-04T08:18:41;10.20;99.90
29571;DHT22;16814;52.118;11.436;2022-11-04T08:21:07;10.20;99.90
29571;DHT22;16814;52.118;11.436;2022-11-04T08:23:36;10.30;99.90
29571;DHT22;16814;52.118;11.436;2022-11-04T08:26:12;10.30;99.90
29571;DHT22;16814;52.118;11.436;2022-11-04T08:28:39;10.30;99.90
29571;DHT22;16814;52.118;11.436;2022-11-04T08:31:14;10.30;99.90
29571;DHT22;16814;52.118;11.436;2022-11-04T08:33:41;10.30;99.90
29571;DHT22;16814;52.118;11.436;2022-11-04T08:36:10;10.30;99.90
29571;DHT22;16814;52.118;11.436;2022-11-04T08:38:38;10.40;99.90
29571;DHT22;16814;52.118;11.436;2022-11-04T08:41:07;10.40;99.90
29571;DHT22;16814;52.118;11.436;2022-11-04T08:43:33;10.40;99.90
29571;DHT22;16814;52.118;11.436;2022-11-04T08:46:01;10.40;99.90
29571;DHT22;16814;52.118;11.436;2022-11-04T08:48:27;10.50;99.90
29571;DHT22;16814;52.118;11.436;2022-11-04T08:50:56;10.50;99.90
29571;DHT22;16814;52.118;11.436;2022-11-04T08:53:27;10.50;99.90
29571;DHT22;16814;52.118;11.436;2022-11-04T08:55:53;10.50;99.90
29571;DHT22;16814;52.118;11.436;2022-11-04T08:58:19;10.50;99.90
29571;DHT22;16814;52.118;11.436;2022-11-04T09:00:46;10.60;99.90
29571;DHT22;16814;52.118;11.436;2022-11-04T09:03:13;10.60;99.90
29571;DHT22;16814;52.118;11.436;2022-11-04T09:05:39;10.60;99.90
29571;DHT22;16814;52.118;11.436;2022-11-04T09:08:16;10.60;99.90
29571;DHT22;16814;52.118;11.436;2022-11-04T09:10:43;10.60;99.90
29571;DHT22;16814;52.118;11.436;2022-11-04T09:13:12;10.70;99.90
29571;DHT22;16814;52.118;11.436;2022-11-04T09:15:39;10.70;99.90
29571;DHT22;16814;52.118;11.436;2022-11-04T09:18:06;10.70;99.90
29571;DHT22;16814;52.118;11.436;2022-11-04T09:20:33;10.70;99.90
29571;DHT22;16814;52.118;11.436;2022-11-04T09:23:05;10.70;99.90
29571;DHT22;16814;52.118;11.436;2022-11-04T09:25:32;10.60;99.90
29571;DHT22;16814;52.118;11.436;2022-11-04T09:28:00;10.60;99.90
29571;DHT22;16814;52.118;11.436;2022-11-04T09:30:30;10.60;99.90
29571;DHT22;16814;52.118;11.436;2022-11-04T09:32:58;10.60;99.90
29571;DHT22;16814;52.118;11.436;2022-11-04T09:35:25;10.60;99.90
29571;DHT22;16814;52.118;11.436;2022-11-04T09:37:57;10.60;99.90
29571;DHT22;16814;52.118;11.436;2022-11-04T09:40:25;10.60;99.90
29571;DHT22;16814;52.118;11.436;2022-11-04T09:45:31;10.60;99.90
29571;DHT22;16814;52.118;11.436;2022-11-04T09:48:06;10.70;99.90
29571;DHT22;16814;52.118;11.436;2022-11-04T09:50:55;10.70;99.90
29571;DHT22;16814;52.118;11.436;2022-11-04T09:53:39;10.70;99.90
29571;DHT22;16814;52.118;11.436;2022-11-04T09:56:23;10.70;99.90
29571;DHT22;16814;52.118;11.436;2022-11-04T09:58:51;10.70;99.90
29571;DHT22;16814;52.118;11.436;2022-11-04T10:01:41;10.80;99.90
29571;DHT22;16814;52.118;11.436;2022-11-04T10:13:10;10.80;99.90
29571;DHT22;16814;52.118;11.436;2022-11-04T10:21:53;10.90;99.90
29571;DHT22;16814;52.118;11.436;2022-11-04T10:24:44;10.90;99.90
29571;DHT22;16814;52.118;11.436;2022-11-04T10:27:25;10.90;99.90
29571;DHT22;16814;52.118;11.436;2022-11-04T10:30:17;11.00;99.90
29571;DHT22;16814;52.118;11.436;2022-11-04T10:35:50;11.10;99.90
29571;DHT22;16814;52.118;11.436;2022-11-04T10:38:37;11.10;99.90
29571;DHT22;16814;52.118;11.436;2022-11-04T10:44:06;11.10;99.90
29571;DHT22;16814;52.118;11.436;2022-11-04T10:49:52;11.00;99.90
29571;DHT22;16814;52.118;11.436;2022-11-04T10:52:23;11.00;99.90
29571;DHT22;16814;52.118;11.436;2022-11-04T10:54:49;11.00;99.90
29571;DHT22;16814;52.118;11.436;2022-11-04T10:57:24;11.00;99.90
29571;DHT22;16814;52.118;11.436;2022-11-04T11:00:01;10.90;99.90
29571;DHT22;16814;52.118;11.436;2022-11-04T11:02:46;10.90;99.90
29571;DHT22;16814;52.118;11.436;2022-11-04T11:07:50;10.90;99.90
29571;DHT22;16814;52.118;11.436;2022-11-04T11:10:33;11.00;99.90
29571;DHT22;16814;52.118;11.436;2022-11-04T11:13:06;10.90;99.90
29571;DHT22;16814;52.118;11.436;2022-11-04T11:16:11;10.90;99.90
29571;DHT22;16814;52.118;11.436;2022-11-04T11:18:39;10.90;99.90
29571;DHT22;16814;52.118;11.436;2022-11-04T11:21:15;11.00;99.90
29571;DHT22;16814;52.118;11.436;2022-11-04T11:23:47;11.00;99.90
29571;DHT22;16814;52.118;11.436;2022-11-04T11:26:28;11.00;99.90
29571;DHT22;16814;52.118;11.436;2022-11-04T11:28:57;11.10;99.90
29571;DHT22;16814;52.118;11.436;2022-11-04T11:31:35;11.10;99.90
29571;DHT22;16814;52.118;11.436;2022-11-04T11:34:13;11.10;99.90
29571;DHT22;16814;52.118;11.436;2022-11-04T11:36:41;11.10;99.90
29571;DHT22;16814;52.118;11.436;2022-11-04T11:39:16;11.20;99.90
29571;DHT22;16814;52.118;11.436;2022-11-04T11:44:53;11.10;99.90
29571;DHT22;16814;52.118;11.436;2022-11-04T11:52:49;11.10;99.90
29571;DHT22;16814;52.118;11.436;2022-11-04T11:55:26;11.10;99.90
29571;DHT22;16814;52.118;11.436;2022-11-04T11:58:17;11.00;99.90
29571;DHT22;16814;52.118;11.436;2022-11-04T12:01:23;10.90;99.90
29571;DHT22;16814;52.118;11.436;2022-11-04T12:03:53;10.80;99.90
29571;DHT22;16814;52.118;11.436;2022-11-04T12:12:47;11.20;99.90
29571;DHT22;16814;52.118;11.436;2022-11-04T12:15:39;11.20;99.90
29571;DHT22;16814;52.118;11.436;2022-11-04T12:30:03;11.00;99.90
29571;DHT22;16814;52.118;11.436;2022-11-04T12:33:29;11.00;99.90
29571;DHT22;16814;52.118;11.436;2022-11-04T12:39:24;11.00;99.90
29571;DHT22;16814;52.118;11.436;2022-11-04T12:42:08;11.10;99.90
29571;DHT22;16814;52.118;11.436;2022-11-04T12:47:45;11.10;99.90
29571;DHT22;16814;52.118;11.436;2022-11-04T12:56:37;11.00;99.90
29571;DHT22;16814;52.118;11.436;2022-11-04T12:59:40;10.90;99.90
29571;DHT22;16814;52.118;11.436;2022-11-04T13:02:28;11.00;99.90
29571;DHT22;16814;52.118;11.436;2022-11-04T13:05:04;11.10;99.90
29571;DHT22;16814;52.118;11.436;2022-11-04T13:07:39;11.20;99.90
29571;DHT22;16814;52.118;11.436;2022-11-04T13:10:16;11.20;99.90
29571;DHT22;16814;52.118;11.436;2022-11-04T13:12:47;11.20;99.90
29571;DHT22;16814;52.118;11.436;2022-11-04T13:15:21;11.30;99.90
29571;DHT22;16814;52.118;11.436;2022-11-04T13:17:50;11.50;99.90
29571;DHT22;16814;52.118;11.436;2022-11-04T13:20:44;11.30;99.90
29571;DHT22;16814;52.118;11.436;2022-11-04T13:23:21;11.50;99.90
29571;DHT22;16814;52.118;11.436;2022-11-04T13:25:50;11.50;99.90
29571;DHT22;16814;52.118;11.436;2022-11-04T13:28:21;11.40;99.90
29571;DHT22;16814;52.118;11.436;2022-11-04T13:37:25;11.80;99.90
29571;DHT22;16814;52.118;11.436;2022-11-04T13:43:24;12.20;99.90
29571;DHT22;16814;52.118;11.436;2022-11-04T13:46:20;12.30;99.90
29571;DHT22;16814;52.118;11.436;2022-11-04T13:49:28;12.10;99.90
29571;DHT22;16814;52.118;11.436;2022-11-04T13:52:10;12.20;99.90
29571;DHT22;16814;52.118;11.436;2022-11-04T13:55:03;12.10;99.90
29571;DHT22;16814;52.118;11.436;2022-11-04T13:57:32;12.20;99.90
29571;DHT22;16814;52.118;11.436;2022-11-04T14:02:42;12.10;99.90
29571;DHT22;16814;52.118;11.436;2022-11-04T14:05:54;12.20;99.90
29571;DHT22;16814;52.118;11.436;2022-11-04T14:08:28;12.20;99.90
29571;DHT22;16814;52.118;11.436;2022-11-04T14:11:01;12.20;99.90
29571;DHT22;16814;52.118;11.436;2022-11-04T14:16:36;12.00;99.90
29571;DHT22;16814;52.118;11.436;2022-11-04T14:22:14;11.90;99.90
29571;DHT22;16814;52.118;11.436;2022-11-04T14:24:52;11.90;99.90
29571;DHT22;16814;52.118;11.436;2022-11-04T14:27:29;11.80;99.90
29571;DHT22;16814;52.118;11.436;2022-11-04T14:33:32;11.50;99.90
29571;DHT22;16814;52.118;11.436;2022-11-04T14:50:01;11.40;99.90
29571;DHT22;16814;52.118;11.436;2022-11-04T14:52:35;11.30;99.90
29571;DHT22;16814;52.118;11.436;2022-11-04T15:01:03;11.20;99.90
29571;DHT22;16814;52.118;11.436;2022-11-04T15:03:36;11.10;99.90
29571;DHT22;16814;52.118;11.436;2022-11-04T15:06:05;11.00;99.90
29571;DHT22;16814;52.118;11.436;2022-11-04T15:08:44;10.90;99.90
29571;DHT22;16814;52.118;11.436;2022-11-04T15:11:22;10.80;99.90
29571;DHT22;16814;52.118;11.436;2022-11-04T15:14:22;10.80;99.90
29571;DHT22;16814;52.118;11.436;2022-11-04T15:16:54;10.70;99.90
29571;DHT22;16814;52.118;11.436;2022-11-04T15:19:34;10.80;99.90
29571;DHT22;16814;52.118;11.436;2022-11-04T15:22:02;10.80;99.90
29571;DHT22;16814;52.118;11.436;2022-11-04T15:24:28;10.70;99.90
29571;DHT22;16814;52.118;11.436;2022-11-04T15:27:03;10.70;99.90
29571;DHT22;16814;52.118;11.436;2022-11-04T15:29:31;10.70;99.90
29571;DHT22;16814;52.118;11.436;2022-11-04T15:32:03;10.70;99.90
29571;DHT22;16814;52.118;11.436;2022-11-04T15:34:34;10.80;99.90
29571;DHT22;16814;52.118;11.436;2022-11-04T15:37:04;10.80;99.90
29571;DHT22;16814;52.118;11.436;2022-11-04T15:39:42;10.80;99.90
29571;DHT22;16814;52.118;11.436;2022-11-04T15:42:29;10.70;99.90
29571;DHT22;16814;52.118;11.436;2022-11-04T15:45:28;10.80;99.90
29571;DHT22;16814;52.118;11.436;2022-11-04T15:48:32;10.70;99.90
29571;DHT22;16814;52.118;11.436;2022-11-04T15:51:23;10.70;99.90
29571;DHT22;16814;52.118;11.436;2022-11-04T15:54:06;10.70;99.90
29571;DHT22;16814;52.118;11.436;2022-11-04T15:56:50;10.60;99.90
29571;DHT22;16814;52.118;11.436;2022-11-04T15:59:32;10.60;99.90
29571;DHT22;16814;52.118;11.436;2022-11-04T16:02:02;10.50;99.90
29571;DHT22;16814;52.118;11.436;2022-11-04T16:04:29;10.50;99.90
29571;DHT22;16814;52.118;11.436;2022-11-04T16:09:51;10.50;99.90
29571;DHT22;16814;52.118;11.436;2022-11-04T16:12:24;10.60;99.90
29571;DHT22;16814;52.118;11.436;2022-11-04T16:14:59;10.60;99.90
29571;DHT22;16814;52.118;11.436;2022-11-04T16:17:27;10.60;99.90
29571;DHT22;16814;52.118;11.436;2022-11-04T16:20:15;10.50;99.90
29571;DHT22;16814;52.118;11.436;2022-11-04T16:22:45;10.40;99.90
29571;DHT22;16814;52.118;11.436;2022-11-04T16:25:19;10.50;99.90
29571;DHT22;16814;52.118;11.436;2022-11-04T16:27:51;10.50;99.90
29571;DHT22;16814;52.118;11.436;2022-11-04T16:30:22;10.40;99.90
29571;DHT22;16814;52.118;11.436;2022-11-04T16:32:59;10.40;99.90
29571;DHT22;16814;52.118;11.436;2022-11-04T16:35:32;10.40;99.90
29571;DHT22;16814;52.118;11.436;2022-11-04T16:37:59;10.30;99.90
29571;DHT22;16814;52.118;11.436;2022-11-04T16:40:26;10.20;99.90
29571;DHT22;16814;52.118;11.436;2022-11-04T16:42:54;10.10;99.90
29571;DHT22;16814;52.118;11.436;2022-11-04T16:45:36;10.10;99.90
29571;DHT22;16814;52.118;11.436;2022-11-04T16:48:04;10.00;99.90
29571;DHT22;16814;52.118;11.436;2022-11-04T16:50:32;10.00;99.90
29571;DHT22;16814;52.118;11.436;2022-11-04T16:53:01;10.00;99.90
29571;DHT22;16814;52.118;11.436;2022-11-04T16:55:29;10.00;99.90
29571;DHT22;16814;52.118;11.436;2022-11-04T16:57:59;10.00;99.90
29571;DHT22;16814;52.118;11.436;2022-11-04T17:00:28;9.90;99.90
29571;DHT22;16814;52.118;11.436;2022-11-04T17:03:13;9.90;99.90
29571;DHT22;16814;52.118;11.436;2022-11-04T17:05:50;9.90;99.90
29571;DHT22;16814;52.118;11.436;2022-11-04T17:08:17;9.80;99.90
29571;DHT22;16814;52.118;11.436;2022-11-04T17:10:43;9.80;99.90
29571;DHT22;16814;52.118;11.436;2022-11-04T17:13:11;9.80;99.90
29571;DHT22;16814;52.118;11.436;2022-11-04T17:15:39;9.80;99.90
29571;DHT22;16814;52.118;11.436;2022-11-04T17:18:06;9.90;99.90
29571;DHT22;16814;52.118;11.436;2022-11-04T17:20:32;9.90;99.90
29571;DHT22;16814;52.118;11.436;2022-11-04T17:22:58;9.90;99.90
29571;DHT22;16814;52.118;11.436;2022-11-04T17:25:27;9.90;99.90
29571;DHT22;16814;52.118;11.436;2022-11-04T17:27:54;9.80;99.90
29571;DHT22;16814;52.118;11.436;2022-11-04T17:30:21;9.80;99.90
29571;DHT22;16814;52.118;11.436;2022-11-04T17:32:49;9.80;99.90
29571;DHT22;16814;52.118;11.436;2022-11-04T17:35:15;9.70;99.90
29571;DHT22;16814;52.118;11.436;2022-11-04T17:37:42;9.60;99.90
29571;DHT22;16814;52.118;11.436;2022-11-04T17:40:14;9.60;99.90
29571;DHT22;16814;52.118;11.436;2022-11-04T17:42:41;9.70;99.90
29571;DHT22;16814;52.118;11.436;2022-11-04T17:45:30;9.70;99.90
29571;DHT22;16814;52.118;11.436;2022-11-04T17:48:03;9.70;99.90
29571;DHT22;16814;52.118;11.436;2022-11-04T17:50:30;9.60;99.90
29571;DHT22;16814;52.118;11.436;2022-11-04T17:52:58;9.60;99.90
29571;DHT22;16814;52.118;11.436;2022-11-04T17:55:24;9.50;99.90
29571;DHT22;16814;52.118;11.436;2022-11-04T17:57:50;9.90;99.90
29571;DHT22;16814;52.118;11.436;2022-11-04T18:00:17;9.50;99.90
29571;DHT22;16814;52.118;11.436;2022-11-04T18:02:50;9.50;99.90
29571;DHT22;16814;52.118;11.436;2022-11-04T18:05:20;9.50;99.90
29571;DHT22;16814;52.118;11.436;2022-11-04T18:07:48;9.50;99.90
29571;DHT22;16814;52.118;11.436;2022-11-04T18:10:13;9.50;99.90
29571;DHT22;16814;52.118;11.436;2022-11-04T18:12:39;9.50;99.90
29571;DHT22;16814;52.118;11.436;2022-11-04T18:15:27;9.60;99.90
29571;DHT22;16814;52.118;11.436;2022-11-04T18:17:52;9.60;99.90
29571;DHT22;16814;52.118;11.436;2022-11-04T18:20:18;9.60;99.90
29571;DHT22;16814;52.118;11.436;2022-11-04T18:22:45;9.60;99.90
29571;DHT22;16814;52.118;11.436;2022-11-04T18:25:11;9.70;99.90
29571;DHT22;16814;52.118;11.436;2022-11-04T18:27:37;9.70;99.90